createdAt,value
2022-11-06T00:00:06.655Z,969.08
2022-11-06T00:00:56.638Z,969.05
2022-11-06T00:01:46.887Z,969.01
2022-11-06T00:02:36.682Z,968.99
2022-11-06T00:03:26.808Z,968.90
2022-11-06T00:04:16.597Z,968.95
2022-11-06T00:05:06.609Z,968.91
2022-11-06T00:05:56.607Z,968.90
2022-11-06T00:06:46.590Z,968.89
2022-11-06T00:07:36.574Z,968.92
2022-11-06T00:08:26.559Z,968.89
2022-11-06T00:09:16.567Z,968.88
2022-11-06T00:10:06.555Z,968.91
2022-11-06T00:10:56.553Z,968.95
2022-11-06T00:11:46.565Z,968.94
2022-11-06T00:12:36.526Z,968.97
2022-11-06T00:13:26.551Z,968.94
2022-11-06T00:14:16.506Z,968.95
2022-11-06T00:15:06.510Z,968.95
2022-11-06T00:15:56.466Z,968.96
2022-11-06T00:16:46.478Z,968.97
2022-11-06T00:17:36.724Z,968.95
2022-11-06T00:18:26.455Z,968.94
2022-11-06T00:19:16.432Z,968.97
2022-11-06T00:20:06.458Z,968.96
2022-11-06T00:20:56.423Z,968.92
2022-11-06T00:21:46.404Z,968.95
2022-11-06T00:22:36.403Z,968.93
2022-11-06T00:23:26.624Z,968.88
2022-11-06T00:24:16.373Z,968.93
2022-11-06T00:25:06.384Z,968.93
2022-11-06T00:25:56.385Z,968.92
2022-11-06T00:26:49.963Z,968.90
2022-11-06T00:27:37.582Z,968.92
2022-11-06T00:28:26.360Z,968.84
2022-11-06T00:29:16.333Z,968.85
2022-11-06T00:30:06.323Z,968.84
2022-11-06T00:30:56.345Z,968.84
2022-11-06T00:31:46.323Z,968.80
2022-11-06T00:32:36.283Z,968.80
2022-11-06T00:33:26.297Z,968.81
2022-11-06T00:34:16.273Z,968.85
2022-11-06T00:35:06.269Z,968.87
2022-11-06T00:35:56.253Z,968.83
2022-11-06T00:36:46.276Z,968.86
2022-11-06T00:37:36.243Z,968.88
2022-11-06T00:38:26.241Z,968.92
2022-11-06T00:39:16.211Z,968.96
2022-11-06T00:40:06.209Z,968.92
2022-11-06T00:40:56.202Z,968.97
2022-11-06T00:41:46.208Z,968.99
2022-11-06T00:42:38.753Z,968.98
2022-11-06T00:43:26.178Z,968.98
2022-11-06T00:44:16.154Z,968.97
2022-11-06T00:45:06.155Z,968.95
2022-11-06T00:45:56.130Z,968.95
2022-11-06T00:46:46.138Z,968.93
2022-11-06T00:47:36.127Z,968.93
2022-11-06T00:48:26.151Z,968.96
2022-11-06T00:49:16.100Z,968.97
2022-11-06T00:50:06.102Z,968.95
2022-11-06T00:50:56.071Z,968.92
2022-11-06T00:51:46.080Z,968.96
2022-11-06T00:52:36.070Z,968.93
2022-11-06T00:53:26.061Z,968.92
2022-11-06T00:54:16.086Z,968.90
2022-11-06T00:55:06.049Z,968.95
2022-11-06T00:55:56.051Z,968.95
2022-11-06T00:56:46.019Z,968.98
2022-11-06T00:57:36.008Z,968.96
2022-11-06T00:58:26.011Z,968.96
2022-11-06T00:59:15.980Z,968.94
2022-11-06T01:00:06.078Z,968.96
2022-11-06T01:00:55.999Z,968.94
2022-11-06T01:01:46.117Z,968.90
2022-11-06T01:02:36.065Z,968.90
2022-11-06T01:03:25.941Z,968.91
2022-11-06T01:04:15.947Z,968.93
2022-11-06T01:05:05.933Z,968.93
2022-11-06T01:05:56.159Z,968.99
2022-11-06T01:06:45.921Z,968.96
2022-11-06T01:07:35.906Z,968.92
2022-11-06T01:08:25.888Z,968.96
2022-11-06T01:09:15.887Z,968.91
2022-11-06T01:10:05.886Z,968.92
2022-11-06T01:10:55.866Z,968.89
2022-11-06T01:12:11.709Z,968.90
2022-11-06T01:12:36.876Z,968.91
2022-11-06T01:13:25.827Z,968.90
2022-11-06T01:14:15.813Z,968.86
2022-11-06T01:15:05.816Z,968.92
2022-11-06T01:15:55.817Z,968.90
2022-11-06T01:16:45.834Z,968.92
2022-11-06T01:17:35.806Z,968.92
2022-11-06T01:18:26.014Z,968.90
2022-11-06T01:19:15.767Z,968.96
2022-11-06T01:20:05.754Z,968.94
2022-11-06T01:20:55.765Z,968.95
2022-11-06T01:21:45.745Z,968.94
2022-11-06T01:22:35.766Z,968.93
2022-11-06T01:23:25.733Z,968.93
2022-11-06T01:24:16.005Z,968.93
2022-11-06T01:25:05.693Z,968.92
2022-11-06T01:25:55.692Z,968.92
2022-11-06T01:27:12.100Z,968.91
2022-11-06T01:27:36.697Z,968.94
2022-11-06T01:28:25.753Z,968.97
2022-11-06T01:29:15.670Z,968.95
2022-11-06T01:30:05.714Z,968.98
2022-11-06T01:30:55.651Z,968.97
2022-11-06T01:31:45.708Z,969.00
2022-11-06T01:32:35.632Z,969.01
2022-11-06T01:33:25.623Z,969.02
2022-11-06T01:34:15.602Z,969.04
2022-11-06T01:35:05.610Z,969.01
2022-11-06T01:35:55.623Z,969.01
2022-11-06T01:36:45.579Z,968.99
2022-11-06T01:37:35.571Z,968.99
2022-11-06T01:38:25.782Z,968.99
2022-11-06T01:39:15.579Z,968.98
2022-11-06T01:40:05.525Z,968.96
2022-11-06T01:40:55.541Z,968.98
2022-11-06T01:41:45.522Z,968.98
2022-11-06T01:42:35.502Z,968.96
2022-11-06T01:43:25.538Z,968.92
2022-11-06T01:44:15.530Z,968.93
2022-11-06T01:45:05.496Z,968.96
2022-11-06T01:45:55.473Z,968.91
2022-11-06T01:46:45.457Z,968.93
2022-11-06T01:47:35.459Z,968.91
2022-11-06T01:48:25.465Z,968.88
2022-11-06T01:49:15.450Z,968.90
2022-11-06T01:50:05.447Z,968.93
2022-11-06T01:50:55.421Z,968.88
2022-11-06T01:51:45.396Z,968.90
2022-11-06T01:52:35.415Z,968.91
2022-11-06T01:53:25.381Z,968.89
2022-11-06T01:54:15.474Z,968.87
2022-11-06T01:55:05.369Z,968.88
2022-11-06T01:55:55.359Z,968.94
2022-11-06T01:56:45.341Z,968.87
2022-11-06T01:57:35.344Z,968.87
2022-11-06T01:58:25.337Z,968.86
2022-11-06T01:59:15.329Z,968.89
2022-11-06T02:00:05.378Z,968.85
2022-11-06T02:00:55.303Z,968.83
2022-11-06T02:01:45.441Z,968.87
2022-11-06T02:02:35.396Z,968.86
2022-11-06T02:03:25.269Z,968.88
2022-11-06T02:04:15.278Z,968.91
2022-11-06T02:05:05.258Z,968.88
2022-11-06T02:05:55.275Z,968.89
2022-11-06T02:06:45.255Z,968.87
2022-11-06T02:07:35.238Z,968.87
2022-11-06T02:08:25.225Z,968.84
2022-11-06T02:09:15.217Z,968.86
2022-11-06T02:10:05.241Z,968.79
2022-11-06T02:10:55.197Z,968.82
2022-11-06T02:11:45.195Z,968.79
2022-11-06T02:12:35.174Z,968.79
2022-11-06T02:13:25.173Z,968.79
2022-11-06T02:14:15.146Z,968.81
2022-11-06T02:15:05.137Z,968.74
2022-11-06T02:15:55.138Z,968.69
2022-11-06T02:16:45.116Z,968.71
2022-11-06T02:17:35.145Z,968.72
2022-11-06T02:18:25.095Z,968.69
2022-11-06T02:19:15.103Z,968.70
2022-11-06T02:20:05.118Z,968.66
2022-11-06T02:20:55.082Z,968.68
2022-11-06T02:21:45.082Z,968.66
2022-11-06T02:22:35.061Z,968.63
2022-11-06T02:23:25.141Z,968.65
2022-11-06T02:24:15.089Z,968.70
2022-11-06T02:25:05.054Z,968.67
2022-11-06T02:25:55.033Z,968.65
2022-11-06T02:26:45.019Z,968.68
2022-11-06T02:27:35.020Z,968.65
2022-11-06T02:28:24.994Z,968.60
2022-11-06T02:29:15.024Z,968.60
2022-11-06T02:30:05.061Z,968.55
2022-11-06T02:30:54.962Z,968.55
2022-11-06T02:31:44.975Z,968.49
2022-11-06T02:32:34.960Z,968.48
2022-11-06T02:33:24.941Z,968.48
2022-11-06T02:34:14.933Z,968.52
2022-11-06T02:35:04.931Z,968.42
2022-11-06T02:35:54.920Z,968.46
2022-11-06T02:36:44.912Z,968.42
2022-11-06T02:37:35.112Z,968.43
2022-11-06T02:38:24.889Z,968.39
2022-11-06T02:39:14.881Z,968.39
2022-11-06T02:40:04.874Z,968.37
2022-11-06T02:40:54.890Z,968.32
2022-11-06T02:41:44.970Z,968.25
2022-11-06T02:42:34.960Z,968.25
2022-11-06T02:43:24.850Z,968.31
2022-11-06T02:44:14.855Z,968.28
2022-11-06T02:45:04.827Z,968.30
2022-11-06T02:45:54.799Z,968.33
2022-11-06T02:46:44.790Z,968.32
2022-11-06T02:47:34.790Z,968.37
2022-11-06T02:48:25.023Z,968.43
2022-11-06T02:49:14.777Z,968.42
2022-11-06T02:50:04.754Z,968.39
2022-11-06T02:50:54.746Z,968.40
2022-11-06T02:51:44.748Z,968.37
2022-11-06T02:52:34.719Z,968.37
2022-11-06T02:53:24.707Z,968.39
2022-11-06T02:54:14.730Z,968.41
2022-11-06T02:55:04.711Z,968.35
2022-11-06T02:55:54.725Z,968.33
2022-11-06T02:56:44.685Z,968.31
2022-11-06T02:57:34.677Z,968.29
2022-11-06T02:58:24.721Z,968.25
2022-11-06T02:59:14.656Z,968.27
2022-11-06T03:00:04.654Z,968.29
2022-11-06T03:00:54.660Z,968.26
2022-11-06T03:01:44.749Z,968.29
2022-11-06T03:02:34.797Z,968.29
2022-11-06T03:03:24.598Z,968.38
2022-11-06T03:04:14.640Z,968.32
2022-11-06T03:05:04.577Z,968.32
2022-11-06T03:05:54.596Z,968.28
2022-11-06T03:06:44.564Z,968.22
2022-11-06T03:07:34.565Z,968.17
2022-11-06T03:08:24.543Z,968.17
2022-11-06T03:09:14.551Z,968.09
2022-11-06T03:10:05.957Z,968.13
2022-11-06T03:10:54.537Z,968.12
2022-11-06T03:11:44.523Z,968.08
2022-11-06T03:12:34.513Z,968.16
2022-11-06T03:13:24.508Z,968.18
2022-11-06T03:14:14.507Z,968.15
2022-11-06T03:15:04.473Z,968.14
2022-11-06T03:15:54.718Z,968.14
2022-11-06T03:16:44.464Z,968.15
2022-11-06T03:17:34.478Z,968.12
2022-11-06T03:18:24.431Z,968.17
2022-11-06T03:19:14.443Z,968.15
2022-11-06T03:20:04.458Z,968.13
2022-11-06T03:20:54.413Z,968.13
2022-11-06T03:21:44.434Z,968.11
2022-11-06T03:22:34.414Z,968.10
2022-11-06T03:23:24.370Z,968.02
2022-11-06T03:24:14.402Z,967.98
2022-11-06T03:25:04.372Z,967.98
2022-11-06T03:25:54.387Z,967.93
2022-11-06T03:26:44.345Z,967.99
2022-11-06T03:27:34.382Z,968.01
2022-11-06T03:28:24.380Z,967.97
2022-11-06T03:29:14.310Z,967.99
2022-11-06T03:30:04.321Z,967.98
2022-11-06T03:30:54.312Z,967.95
2022-11-06T03:31:44.293Z,967.93
2022-11-06T03:32:34.282Z,967.86
2022-11-06T03:33:24.301Z,967.85
2022-11-06T03:34:14.276Z,967.82
2022-11-06T03:35:04.240Z,967.80
2022-11-06T03:35:54.258Z,967.78
2022-11-06T03:36:44.245Z,967.79
2022-11-06T03:37:34.212Z,967.79
2022-11-06T03:38:24.230Z,967.74
2022-11-06T03:39:14.435Z,967.77
2022-11-06T03:40:04.205Z,967.76
2022-11-06T03:40:54.182Z,967.71
2022-11-06T03:41:44.236Z,967.71
2022-11-06T03:42:34.186Z,967.77
2022-11-06T03:43:24.165Z,967.72
2022-11-06T03:44:14.181Z,967.72
2022-11-06T03:45:04.191Z,967.70
2022-11-06T03:45:54.140Z,967.68
2022-11-06T03:46:44.120Z,967.66
2022-11-06T03:47:34.110Z,967.65
2022-11-06T03:48:24.101Z,967.58
2022-11-06T03:49:14.098Z,967.55
2022-11-06T03:50:04.117Z,967.54
2022-11-06T03:50:54.136Z,967.53
2022-11-06T03:51:44.082Z,967.49
2022-11-06T03:52:34.079Z,967.48
2022-11-06T03:53:24.039Z,967.49
2022-11-06T03:54:14.089Z,967.50
2022-11-06T03:55:04.029Z,967.47
2022-11-06T03:55:54.022Z,967.50
2022-11-06T03:56:44.020Z,967.47
2022-11-06T03:57:34.017Z,967.53
2022-11-06T03:58:24.022Z,967.56
2022-11-06T03:59:14.109Z,967.61
2022-11-06T04:00:03.967Z,967.61
2022-11-06T04:00:53.965Z,967.64
2022-11-06T04:01:44.056Z,967.66
2022-11-06T04:02:34.050Z,967.66
2022-11-06T04:03:23.949Z,967.64
2022-11-06T04:04:13.936Z,967.61
2022-11-06T04:05:03.953Z,967.56
2022-11-06T04:05:53.953Z,967.52
2022-11-06T04:06:43.919Z,967.52
2022-11-06T04:07:33.896Z,967.52
2022-11-06T04:08:23.885Z,967.57
2022-11-06T04:09:13.874Z,967.62
2022-11-06T04:10:03.893Z,967.60
2022-11-06T04:10:53.876Z,967.63
2022-11-06T04:11:43.852Z,967.57
2022-11-06T04:12:34.055Z,967.57
2022-11-06T04:13:23.845Z,967.54
2022-11-06T04:14:13.835Z,967.54
2022-11-06T04:15:03.798Z,967.50
2022-11-06T04:15:53.817Z,967.51
2022-11-06T04:16:44.010Z,967.48
2022-11-06T04:17:33.788Z,967.54
2022-11-06T04:18:23.770Z,967.50
2022-11-06T04:19:13.785Z,967.50
2022-11-06T04:20:03.796Z,967.46
2022-11-06T04:20:53.744Z,967.46
2022-11-06T04:21:43.733Z,967.46
2022-11-06T04:22:33.805Z,967.48
2022-11-06T04:23:23.722Z,967.50
2022-11-06T04:24:13.722Z,967.54
2022-11-06T04:25:03.725Z,967.48
2022-11-06T04:25:53.703Z,967.54
2022-11-06T04:26:43.683Z,967.48
2022-11-06T04:27:33.678Z,967.49
2022-11-06T04:28:23.692Z,967.50
2022-11-06T04:29:13.653Z,967.48
2022-11-06T04:30:03.633Z,967.43
2022-11-06T04:30:53.664Z,967.41
2022-11-06T04:31:43.872Z,967.38
2022-11-06T04:32:33.635Z,967.36
2022-11-06T04:33:23.602Z,967.35
2022-11-06T04:34:13.621Z,967.40
2022-11-06T04:35:03.593Z,967.41
2022-11-06T04:35:53.592Z,967.41
2022-11-06T04:36:43.584Z,967.43
2022-11-06T04:37:33.591Z,967.46
2022-11-06T04:38:23.550Z,967.47
2022-11-06T04:39:13.560Z,967.44
2022-11-06T04:40:03.536Z,967.46
2022-11-06T04:40:53.529Z,967.42
2022-11-06T04:41:43.530Z,967.40
2022-11-06T04:42:33.503Z,967.46
2022-11-06T04:43:23.710Z,967.43
2022-11-06T04:44:13.502Z,967.45
2022-11-06T04:45:03.472Z,967.41
2022-11-06T04:45:53.466Z,967.46
2022-11-06T04:46:43.469Z,967.49
2022-11-06T04:47:33.448Z,967.48
2022-11-06T04:48:23.462Z,967.45
2022-11-06T04:49:13.450Z,967.45
2022-11-06T04:50:03.418Z,967.47
2022-11-06T04:50:53.432Z,967.46
2022-11-06T04:51:43.409Z,967.48
2022-11-06T04:52:33.409Z,967.48
2022-11-06T04:53:23.393Z,967.47
2022-11-06T04:54:13.385Z,967.52
2022-11-06T04:55:03.395Z,967.51
2022-11-06T04:55:53.370Z,967.53
2022-11-06T04:56:46.338Z,967.56
2022-11-06T04:57:33.347Z,967.55
2022-11-06T04:58:23.323Z,967.60
2022-11-06T04:59:13.328Z,967.53
2022-11-06T05:00:03.327Z,967.57
2022-11-06T05:00:53.340Z,967.57
2022-11-06T05:01:43.417Z,967.57
2022-11-06T05:02:33.276Z,967.63
2022-11-06T05:03:23.275Z,967.61
2022-11-06T05:04:13.287Z,967.61
2022-11-06T05:05:03.266Z,967.57
2022-11-06T05:05:53.276Z,967.56
2022-11-06T05:06:43.258Z,967.57
2022-11-06T05:07:33.216Z,967.60
2022-11-06T05:08:23.249Z,967.56
2022-11-06T05:09:13.226Z,967.58
2022-11-06T05:10:03.216Z,967.56
2022-11-06T05:10:53.230Z,967.55
2022-11-06T05:11:43.208Z,967.56
2022-11-06T05:12:33.215Z,967.48
2022-11-06T05:13:23.153Z,967.49
2022-11-06T05:14:13.173Z,967.47
2022-11-06T05:15:03.157Z,967.44
2022-11-06T05:15:53.169Z,967.38
2022-11-06T05:16:43.153Z,967.37
2022-11-06T05:17:36.488Z,967.32
2022-11-06T05:18:23.335Z,967.32
2022-11-06T05:19:13.109Z,967.35
2022-11-06T05:20:03.137Z,967.29
2022-11-06T05:20:53.082Z,967.30
2022-11-06T05:21:43.073Z,967.37
2022-11-06T05:22:33.066Z,967.30
2022-11-06T05:23:23.081Z,967.27
2022-11-06T05:24:13.091Z,967.24
2022-11-06T05:25:03.059Z,967.26
2022-11-06T05:25:53.012Z,967.25
2022-11-06T05:26:43.032Z,967.27
2022-11-06T05:27:33.002Z,967.28
2022-11-06T05:28:23.025Z,967.30
2022-11-06T05:29:13.005Z,967.32
2022-11-06T05:30:03.010Z,967.30
2022-11-06T05:30:53.003Z,967.32
2022-11-06T05:31:42.980Z,967.33
2022-11-06T05:32:32.960Z,967.32
2022-11-06T05:33:22.952Z,967.33
2022-11-06T05:34:12.941Z,967.32
2022-11-06T05:35:02.929Z,967.32
2022-11-06T05:35:52.950Z,967.33
2022-11-06T05:36:42.919Z,967.31
2022-11-06T05:37:32.906Z,967.34
2022-11-06T05:38:22.921Z,967.33
2022-11-06T05:39:12.879Z,967.31
2022-11-06T05:40:02.878Z,967.30
2022-11-06T05:40:52.879Z,967.26
2022-11-06T05:41:42.890Z,967.25
2022-11-06T05:42:32.849Z,967.17
2022-11-06T05:43:22.843Z,967.17
2022-11-06T05:44:12.818Z,967.13
2022-11-06T05:45:02.838Z,967.10
2022-11-06T05:45:52.810Z,967.11
2022-11-06T05:46:48.779Z,967.06
2022-11-06T05:47:33.863Z,967.11
2022-11-06T05:48:22.777Z,967.14
2022-11-06T05:49:12.766Z,967.11
2022-11-06T05:50:02.769Z,967.16
2022-11-06T05:50:52.756Z,967.12
2022-11-06T05:51:42.747Z,967.13
2022-11-06T05:52:32.718Z,967.12
2022-11-06T05:53:22.766Z,967.12
2022-11-06T05:54:12.752Z,967.07
2022-11-06T05:55:02.704Z,967.06
2022-11-06T05:55:52.684Z,967.08
2022-11-06T05:56:42.695Z,967.01
2022-11-06T05:57:32.678Z,967.04
2022-11-06T05:58:22.654Z,967.07
2022-11-06T05:59:12.666Z,967.04
2022-11-06T06:00:02.642Z,967.04
2022-11-06T06:00:52.684Z,967.04
2022-11-06T06:01:42.707Z,967.04
2022-11-06T06:02:32.705Z,966.99
2022-11-06T06:03:22.612Z,967.03
2022-11-06T06:04:12.660Z,966.95
2022-11-06T06:05:02.613Z,966.98
2022-11-06T06:05:52.580Z,966.95
2022-11-06T06:06:42.573Z,966.95
2022-11-06T06:07:32.553Z,966.94
2022-11-06T06:08:22.551Z,966.94
2022-11-06T06:09:12.551Z,966.93
2022-11-06T06:10:02.591Z,966.93
2022-11-06T06:10:52.543Z,966.85
2022-11-06T06:11:42.540Z,966.86
2022-11-06T06:12:32.499Z,966.79
2022-11-06T06:13:22.501Z,966.88
2022-11-06T06:14:12.502Z,966.82
2022-11-06T06:15:02.492Z,966.82
2022-11-06T06:15:52.518Z,966.85
2022-11-06T06:16:42.473Z,966.87
2022-11-06T06:17:32.441Z,966.87
2022-11-06T06:18:22.457Z,966.85
2022-11-06T06:19:12.458Z,966.84
2022-11-06T06:20:02.422Z,966.85
2022-11-06T06:20:52.421Z,966.78
2022-11-06T06:21:42.470Z,966.81
2022-11-06T06:22:32.398Z,966.76
2022-11-06T06:23:22.380Z,966.72
2022-11-06T06:24:12.444Z,966.73
2022-11-06T06:25:02.432Z,966.73
2022-11-06T06:25:52.368Z,966.76
2022-11-06T06:26:42.349Z,966.80
2022-11-06T06:27:32.645Z,966.81
2022-11-06T06:28:22.330Z,966.84
2022-11-06T06:29:12.324Z,966.87
2022-11-06T06:30:02.330Z,966.86
2022-11-06T06:30:55.836Z,966.97
2022-11-06T06:31:43.290Z,966.92
2022-11-06T06:32:32.281Z,966.91
2022-11-06T06:33:22.318Z,966.94
2022-11-06T06:34:12.269Z,966.90
2022-11-06T06:35:02.325Z,966.93
2022-11-06T06:35:52.236Z,966.90
2022-11-06T06:36:42.274Z,966.86
2022-11-06T06:37:32.236Z,966.82
2022-11-06T06:38:22.243Z,966.85
2022-11-06T06:39:12.206Z,966.82
2022-11-06T06:40:02.221Z,966.77
2022-11-06T06:40:52.208Z,966.76
2022-11-06T06:41:42.191Z,966.72
2022-11-06T06:42:32.188Z,966.71
2022-11-06T06:43:22.176Z,966.66
2022-11-06T06:44:12.148Z,966.60
2022-11-06T06:45:02.158Z,966.65
2022-11-06T06:45:52.171Z,966.57
2022-11-06T06:46:42.163Z,966.56
2022-11-06T06:47:32.115Z,966.54
2022-11-06T06:48:22.110Z,966.54
2022-11-06T06:49:12.105Z,966.51
2022-11-06T06:50:02.096Z,966.48
2022-11-06T06:50:52.079Z,966.48
2022-11-06T06:51:42.103Z,966.50
2022-11-06T06:52:32.293Z,966.48
2022-11-06T06:53:22.063Z,966.51
2022-11-06T06:54:12.043Z,966.46
2022-11-06T06:55:02.040Z,966.46
2022-11-06T06:55:52.034Z,966.45
2022-11-06T06:56:42.013Z,966.39
2022-11-06T06:57:32.002Z,966.38
2022-11-06T06:58:22.187Z,966.37
2022-11-06T06:59:11.972Z,966.39
2022-11-06T07:00:01.973Z,966.34
2022-11-06T07:00:51.979Z,966.37
2022-11-06T07:01:42.031Z,966.31
2022-11-06T07:02:32.139Z,966.34
2022-11-06T07:03:21.941Z,966.32
2022-11-06T07:04:11.985Z,966.27
2022-11-06T07:05:01.918Z,966.28
2022-11-06T07:05:51.901Z,966.26
2022-11-06T07:06:42.042Z,966.27
2022-11-06T07:07:31.883Z,966.25
2022-11-06T07:08:21.891Z,966.21
2022-11-06T07:09:11.904Z,966.22
2022-11-06T07:10:01.916Z,966.21
2022-11-06T07:10:51.850Z,966.23
2022-11-06T07:11:41.851Z,966.18
2022-11-06T07:12:31.849Z,966.17
2022-11-06T07:13:21.829Z,966.13
2022-11-06T07:14:11.819Z,966.13
2022-11-06T07:15:01.839Z,966.12
2022-11-06T07:15:52.061Z,966.13
2022-11-06T07:16:41.804Z,966.15
2022-11-06T07:17:31.788Z,966.12
2022-11-06T07:18:21.777Z,966.09
2022-11-06T07:19:11.778Z,966.11
2022-11-06T07:20:01.794Z,966.07
2022-11-06T07:20:51.747Z,966.11
2022-11-06T07:21:41.768Z,966.10
2022-11-06T07:22:36.932Z,966.06
2022-11-06T07:23:22.727Z,966.08
2022-11-06T07:24:11.731Z,966.12
2022-11-06T07:25:01.731Z,966.10
2022-11-06T07:25:51.703Z,966.10
2022-11-06T07:26:41.684Z,966.09
2022-11-06T07:27:31.913Z,966.06
2022-11-06T07:28:21.663Z,966.06
2022-11-06T07:29:11.673Z,965.99
2022-11-06T07:30:01.672Z,965.95
2022-11-06T07:30:51.642Z,965.96
2022-11-06T07:31:41.626Z,965.90
2022-11-06T07:32:31.624Z,965.89
2022-11-06T07:33:21.682Z,965.85
2022-11-06T07:34:11.638Z,965.83
2022-11-06T07:35:01.597Z,965.82
2022-11-06T07:35:51.595Z,965.80
2022-11-06T07:36:41.568Z,965.76
2022-11-06T07:37:31.573Z,965.73
2022-11-06T07:38:21.574Z,965.71
2022-11-06T07:39:11.533Z,965.70
2022-11-06T07:40:01.578Z,965.68
2022-11-06T07:40:51.536Z,965.67
2022-11-06T07:41:41.764Z,965.70
2022-11-06T07:42:31.501Z,965.68
2022-11-06T07:43:21.561Z,965.68
2022-11-06T07:44:11.509Z,965.65
2022-11-06T07:45:01.485Z,965.63
2022-11-06T07:45:51.484Z,965.62
2022-11-06T07:46:41.463Z,965.58
2022-11-06T07:47:31.482Z,965.64
2022-11-06T07:48:21.458Z,965.65
2022-11-06T07:49:11.439Z,965.65
2022-11-06T07:50:01.425Z,965.68
2022-11-06T07:50:51.411Z,965.71
2022-11-06T07:51:41.429Z,965.72
2022-11-06T07:52:31.401Z,965.72
2022-11-06T07:53:21.418Z,965.77
2022-11-06T07:54:11.369Z,965.74
2022-11-06T07:55:01.372Z,965.80
2022-11-06T07:55:51.351Z,965.82
2022-11-06T07:56:41.357Z,965.81
2022-11-06T07:57:31.329Z,965.76
2022-11-06T07:58:21.366Z,965.82
2022-11-06T07:59:11.337Z,965.85
2022-11-06T08:00:01.310Z,965.87
2022-11-06T08:00:51.355Z,965.82
2022-11-06T08:01:41.417Z,965.80
2022-11-06T08:02:31.357Z,965.88
2022-11-06T08:03:21.272Z,965.86
2022-11-06T08:04:11.269Z,965.75
2022-11-06T08:05:01.295Z,965.84
2022-11-06T08:05:51.247Z,965.81
2022-11-06T08:06:41.274Z,965.86
2022-11-06T08:07:31.244Z,965.80
2022-11-06T08:08:21.227Z,965.80
2022-11-06T08:09:11.199Z,965.76
2022-11-06T08:10:01.212Z,965.75
2022-11-06T08:10:51.226Z,965.73
2022-11-06T08:11:41.200Z,965.71
2022-11-06T08:12:31.166Z,965.71
2022-11-06T08:13:21.166Z,965.74
2022-11-06T08:14:11.164Z,965.69
2022-11-06T08:15:01.147Z,965.69
2022-11-06T08:15:51.125Z,965.75
2022-11-06T08:16:41.166Z,965.80
2022-11-06T08:17:31.108Z,965.77
2022-11-06T08:18:21.116Z,965.83
2022-11-06T08:19:11.158Z,965.78
2022-11-06T08:20:01.124Z,965.76
2022-11-06T08:20:51.075Z,965.72
2022-11-06T08:21:41.064Z,965.74
2022-11-06T08:22:31.150Z,965.76
2022-11-06T08:23:21.057Z,965.78
2022-11-06T08:24:11.042Z,965.78
2022-11-06T08:25:01.046Z,965.82
2022-11-06T08:25:51.033Z,965.88
2022-11-06T08:26:41.063Z,965.87
2022-11-06T08:27:31.004Z,965.88
2022-11-06T08:28:21.062Z,965.92
2022-11-06T08:29:10.986Z,965.92
2022-11-06T08:30:00.982Z,965.98
2022-11-06T08:30:50.981Z,965.99
2022-11-06T08:31:41.023Z,965.99
2022-11-06T08:32:30.951Z,965.96
2022-11-06T08:33:20.942Z,966.00
2022-11-06T08:34:10.972Z,965.96
2022-11-06T08:35:00.912Z,965.92
2022-11-06T08:35:50.946Z,965.94
2022-11-06T08:36:42.270Z,965.96
2022-11-06T08:37:30.902Z,965.94
2022-11-06T08:38:20.879Z,965.95
2022-11-06T08:39:10.883Z,965.93
2022-11-06T08:40:00.901Z,965.89
2022-11-06T08:40:53.629Z,965.85
2022-11-06T08:41:40.867Z,965.84
2022-11-06T08:42:30.871Z,965.86
2022-11-06T08:43:20.811Z,965.84
2022-11-06T08:44:10.869Z,965.86
2022-11-06T08:45:00.828Z,965.82
2022-11-06T08:45:50.931Z,965.82
2022-11-06T08:46:40.807Z,965.84
2022-11-06T08:47:30.800Z,965.90
2022-11-06T08:48:20.792Z,965.92
2022-11-06T08:49:10.780Z,966.00
2022-11-06T08:50:00.759Z,965.99
2022-11-06T08:50:50.762Z,966.01
2022-11-06T08:51:40.752Z,966.03
2022-11-06T08:52:34.085Z,966.08
2022-11-06T08:53:20.741Z,966.04
2022-11-06T08:54:10.826Z,966.08
2022-11-06T08:55:00.700Z,966.09
2022-11-06T08:55:50.799Z,966.06
2022-11-06T08:56:40.702Z,966.08
2022-11-06T08:57:30.672Z,966.10
2022-11-06T08:58:20.657Z,966.07
2022-11-06T08:59:10.688Z,966.03
2022-11-06T09:00:00.660Z,966.09
2022-11-06T09:00:50.695Z,966.02
2022-11-06T09:01:40.794Z,966.02
2022-11-06T09:02:30.687Z,965.98
2022-11-06T09:03:20.597Z,965.91
2022-11-06T09:04:10.636Z,965.90
2022-11-06T09:05:00.595Z,965.94
2022-11-06T09:05:50.600Z,965.89
2022-11-06T09:06:40.563Z,965.88
2022-11-06T09:07:30.577Z,965.87
2022-11-06T09:08:20.818Z,965.81
2022-11-06T09:09:10.562Z,965.79
2022-11-06T09:10:00.536Z,965.79
2022-11-06T09:10:55.755Z,965.77
2022-11-06T09:11:41.506Z,965.75
2022-11-06T09:12:30.525Z,965.68
2022-11-06T09:13:20.508Z,965.68
2022-11-06T09:14:10.505Z,965.63
2022-11-06T09:15:00.509Z,965.64
2022-11-06T09:15:50.464Z,965.59
2022-11-06T09:16:40.462Z,965.60
2022-11-06T09:17:30.466Z,965.59
2022-11-06T09:18:20.532Z,965.52
2022-11-06T09:19:10.453Z,965.50
2022-11-06T09:20:00.645Z,965.51
2022-11-06T09:20:50.549Z,965.49
2022-11-06T09:21:40.419Z,965.53
2022-11-06T09:22:30.414Z,965.51
2022-11-06T09:23:20.384Z,965.47
2022-11-06T09:24:10.375Z,965.50
2022-11-06T09:25:04.533Z,965.50
2022-11-06T09:25:50.403Z,965.48
2022-11-06T09:26:40.379Z,965.47
2022-11-06T09:27:30.343Z,965.46
2022-11-06T09:28:20.381Z,965.42
2022-11-06T09:29:10.321Z,965.35
2022-11-06T09:30:00.304Z,965.37
2022-11-06T09:30:50.325Z,965.37
2022-11-06T09:31:40.567Z,965.30
2022-11-06T09:32:30.284Z,965.26
2022-11-06T09:33:20.921Z,965.19
2022-11-06T09:34:10.272Z,965.20
2022-11-06T09:35:00.252Z,965.15
2022-11-06T09:35:50.275Z,965.14
2022-11-06T09:36:40.266Z,965.08
2022-11-06T09:37:30.252Z,965.05
2022-11-06T09:38:20.212Z,965.06
2022-11-06T09:39:10.229Z,965.04
2022-11-06T09:40:05.686Z,964.97
2022-11-06T09:40:51.201Z,964.95
2022-11-06T09:41:40.179Z,964.93
2022-11-06T09:42:30.172Z,964.90
2022-11-06T09:43:31.659Z,964.90
2022-11-06T09:44:11.161Z,964.87
2022-11-06T09:45:00.139Z,964.87
2022-11-06T09:45:54.767Z,964.81
2022-11-06T09:46:40.139Z,964.81
2022-11-06T09:47:30.118Z,964.78
2022-11-06T09:48:20.098Z,964.74
2022-11-06T09:49:10.128Z,964.71
2022-11-06T09:50:00.093Z,964.69
2022-11-06T09:50:50.069Z,964.66
2022-11-06T09:51:40.081Z,964.64
2022-11-06T09:52:30.062Z,964.62
2022-11-06T09:53:20.292Z,964.60
2022-11-06T09:54:10.042Z,964.59
2022-11-06T09:55:01.483Z,964.54
2022-11-06T09:55:50.036Z,964.64
2022-11-06T09:56:40.023Z,964.62
2022-11-06T09:57:30.006Z,964.64
2022-11-06T09:58:20.005Z,964.64
2022-11-06T09:59:10.022Z,964.63
2022-11-06T09:59:59.975Z,964.65
2022-11-06T10:00:50.066Z,964.66
2022-11-06T10:01:40.067Z,964.65
2022-11-06T10:02:30.029Z,964.64
2022-11-06T10:03:19.946Z,964.63
2022-11-06T10:04:09.956Z,964.57
2022-11-06T10:04:59.926Z,964.54
2022-11-06T10:05:49.904Z,964.54
2022-11-06T10:06:40.115Z,964.50
2022-11-06T10:07:29.910Z,964.47
2022-11-06T10:08:19.864Z,964.47
2022-11-06T10:09:09.885Z,964.44
2022-11-06T10:09:59.864Z,964.42
2022-11-06T10:10:49.855Z,964.43
2022-11-06T10:11:39.842Z,964.45
2022-11-06T10:12:30.071Z,964.41
2022-11-06T10:13:19.835Z,964.39
2022-11-06T10:14:09.813Z,964.42
2022-11-06T10:14:59.810Z,964.43
2022-11-06T10:15:49.795Z,964.39
2022-11-06T10:16:39.773Z,964.41
2022-11-06T10:17:29.795Z,964.39
2022-11-06T10:18:19.863Z,964.36
2022-11-06T10:19:09.752Z,964.36
2022-11-06T10:19:59.753Z,964.31
2022-11-06T10:20:49.792Z,964.24
2022-11-06T10:21:39.734Z,964.22
2022-11-06T10:22:29.723Z,964.13
2022-11-06T10:23:19.702Z,964.08